Time;durP1;ratioP1;P1;durP2;ratioP2;P2;SDS_P1;SDS_P2;PMS_P1;PMS_P2;Temp;Humidity;BMP_temperature;BMP_pressure;BME280_temperature;BME280_humidity;BME280_pressure;Samples;Min_cycle;Max_cycle;Signal;HPM_P1;HPM_P2
2022/01/23 00:02:39;;;;;;;52.63;34.30;;;;;;;5.44;65.75;101684.75;10473570;28;20058;-67
2022/01/23 00:07:43;;;;;;;56.75;35.28;;;;;;;5.53;65.62;101673.44;10472675;28;20543;-68
2022/01/23 00:12:50;;;;;;;52.65;33.40;;;;;;;5.37;65.77;101677.91;10472560;28;20727;-67
2022/01/23 00:17:52;;;;;;;54.17;33.97;;;;;;;5.31;66.18;101667.59;10472921;28;20423;-67
2022/01/23 00:23:00;;;;;;;55.88;37.53;;;;;;;5.40;65.96;101670.09;10474020;28;20138;-67
2022/01/23 00:33:24;;;;;;;;;;;;;;;5.00;66.76;101666.22;10458443;28;20164;-67
2022/01/23 00:38:26;;;;;;;56.47;36.03;;;;;;;5.34;65.96;101667.56;10472429;28;20395;-67
2022/01/23 00:43:30;;;;;;;58.35;36.22;;;;;;;5.35;65.79;101656.31;10471355;28;20131;-67
2022/01/23 00:48:35;;;;;;;57.10;36.22;;;;;;;5.32;65.95;101651.16;10453978;28;20059;-67
2022/01/23 00:53:37;;;;;;;54.60;34.28;;;;;;;5.34;65.92;101656.34;10472467;28;20048;-67
2022/01/23 00:58:39;;;;;;;55.53;32.95;;;;;;;5.38;65.82;101655.41;10471302;28;20057;-67
2022/01/23 01:03:41;;;;;;;56.15;35.33;;;;;;;5.32;65.99;101651.16;10471195;28;20594;-67
2022/01/23 01:08:43;;;;;;;55.15;33.22;;;;;;;5.21;65.92;101658.19;10471465;28;20063;-67
2022/01/23 01:35:16;;;;;;;63.42;38.58;;;;;;;5.21;66.13;101634.84;10469551;28;20128;-67
2022/01/23 01:40:20;;;;;;;57.97;37.53;;;;;;;5.12;66.44;101645.34;10452334;28;20550;-67
2022/01/23 01:45:27;;;;;;;62.33;37.20;;;;;;;5.22;66.15;101636.59;10469652;28;20278;-67
2022/01/23 01:50:31;;;;;;;60.90;36.45;;;;;;;5.22;66.10;101656.47;10469239;28;20163;-67
2022/01/23 01:55:40;;;;;;;57.67;35.53;;;;;;;5.24;65.97;101654.72;10469512;28;20243;-67
2022/01/23 02:00:52;;;;;;;54.88;35.17;;;;;;;5.23;66.05;101673.72;10469783;28;20399;-67
2022/01/23 02:11:20;;;;;;;56.95;34.97;;;;;;;5.33;65.95;101667.59;10468278;28;20167;-67
2022/01/23 02:58:46;;;;;;;48.63;31.33;;;;;;;5.23;65.33;101660.75;10466570;28;20054;-67
2022/01/23 03:03:57;;;;;;;46.35;30.30;;;;;;;5.13;65.22;101672.09;10454013;28;20561;-67
2022/01/23 03:09:49;;;;;;;44.63;29.52;;;;;;;5.21;65.36;101670.28;10474938;28;20194;-67
2022/01/23 03:14:37;;;;;;;47.22;29.15;;;;;;;5.21;65.37;101665.09;10474301;28;20053;-67
2022/01/23 03:25:37;;;;;;;46.05;29.85;;;;;;;5.24;64.92;101634.84;10474022;28;20266;-67
2022/01/23 03:30:39;;;;;;;50.00;31.38;;;;;;;5.17;65.16;101620.19;10474123;28;20465;-67
2022/01/23 03:35:41;;;;;;;47.92;30.95;;;;;;;5.20;64.92;101620.19;10456341;28;20089;-67
2022/01/23 03:40:42;;;;;;;49.83;31.48;;;;;;;5.11;65.31;101628.03;10456341;28;20124;-67
2022/01/23 03:50:49;;;;;;;54.42;33.53;;;;;;;5.22;65.01;101634.00;10472875;28;20860;-67
2022/01/23 03:55:51;;;;;;;47.10;30.05;;;;;;;5.25;64.85;101651.22;10473715;28;20052;-67
2022/01/23 04:00:53;;;;;;;45.13;28.13;;;;;;;5.17;65.23;101640.09;10473686;28;20139;-67
2022/01/23 04:05:55;;;;;;;46.65;29.75;;;;;;;5.23;65.07;101653.84;10450562;28;20139;-67
2022/01/23 04:10:57;;;;;;;45.80;29.30;;;;;;;5.28;64.82;101651.22;10467407;28;20281;-67
2022/01/23 04:16:17;;;;;;;48.00;28.83;;;;;;;5.23;65.00;101663.34;10453221;28;20060;-67
2022/01/23 05:04:04;;;;;;;38.95;24.90;;;;;;;5.20;64.17;101684.16;10471956;28;20061;-67
2022/01/23 05:08:44;;;;;;;45.00;26.45;;;;;;;5.18;64.56;101691.09;10469796;28;20140;-67
2022/01/23 05:13:47;;;;;;;39.92;26.73;;;;;;;5.20;64.49;101689.34;10471663;28;20552;-67
2022/01/23 05:18:49;;;;;;;35.22;23.65;;;;;;;5.38;64.10;101690.03;10471604;28;20869;-67
2022/01/23 05:23:51;;;;;;;34.63;24.38;;;;;;;5.34;63.79;101687.47;10471228;28;20463;-67
2022/01/23 05:28:53;;;;;;;34.45;23.15;;;;;;;5.38;63.66;101686.56;10471664;28;20143;-67
2022/01/23 05:33:55;;;;;;;35.22;23.88;;;;;;;5.34;63.46;101679.69;10469875;28;20558;-67
2022/01/23 05:38:56;;;;;;;36.22;23.85;;;;;;;5.35;63.59;101678.81;10469869;28;20060;-67
2022/01/23 05:43:58;;;;;;;38.17;24.38;;;;;;;5.33;63.56;101694.38;10470910;28;20451;-67
2022/01/23 05:49:01;;;;;;;33.95;24.05;;;;;;;5.30;63.30;101685.78;10470498;28;20631;-67
2022/01/23 05:54:03;;;;;;;35.58;23.98;;;;;;;5.38;63.26;101679.63;10470794;28;20072;-67
2022/01/23 05:59:04;;;;;;;32.70;22.38;;;;;;;5.34;63.09;101692.66;10470203;28;20519;-66
2022/01/23 06:04:06;;;;;;;27.48;18.48;;;;;;;5.21;62.49;101694.50;10469446;28;20067;-67
2022/01/23 06:09:08;;;;;;;24.85;16.65;;;;;;;5.17;62.42;101697.13;10452478;28;20151;-67
2022/01/23 06:14:10;;;;;;;28.48;19.23;;;;;;;5.20;62.51;101687.63;10469817;28;20128;-67
2022/01/23 06:19:12;;;;;;;25.55;17.40;;;;;;;5.23;62.24;101695.34;10469461;28;20140;-67
2022/01/23 06:24:26;;;;;;;23.15;15.07;;;;;;;5.27;61.56;101689.25;10451190;28;20080;-67
2022/01/23 06:29:30;;;;;;;25.23;15.98;;;;;;;5.32;61.55;101694.41;10468987;28;20132;-67
2022/01/23 06:34:32;;;;;;;35.88;21.00;;;;;;;5.35;61.53;101690.03;10469170;28;20498;-67
2022/01/23 06:39:34;;;;;;;23.85;15.60;;;;;;;5.35;61.17;101695.22;10467826;28;20062;-67
2022/01/23 06:44:37;;;;;;;23.70;15.80;;;;;;;5.36;61.22;101703.88;10468520;28;20057;-67
2022/01/23 06:49:39;;;;;;;23.98;17.08;;;;;;;5.36;61.40;101706.47;10468196;28;20153;-67
2022/01/23 06:54:41;;;;;;;22.25;15.27;;;;;;;5.34;60.89;101703.03;10467614;28;20057;-67
2022/01/23 06:59:43;;;;;;;19.20;14.35;;;;;;;5.28;60.89;101713.47;10449947;28;20056;-67
2022/01/23 07:04:44;;;;;;;20.92;15.15;;;;;;;5.29;60.99;101721.22;10468082;28;20898;-66
2022/01/23 07:09:46;;;;;;;24.73;16.58;;;;;;;5.34;61.05;101724.66;10467915;28;20056;-67
2022/01/23 07:14:48;;;;;;;20.73;15.50;;;;;;;5.34;61.06;101740.22;10467982;28;20161;-66
2022/01/23 07:19:50;;;;;;;24.05;15.98;;;;;;;5.32;60.95;101747.16;10449693;28;20057;-67
2022/01/23 07:24:52;;;;;;;28.52;19.30;;;;;;;5.36;61.14;101754.03;10464603;28;20061;-67
2022/01/23 07:29:54;;;;;;;29.52;19.23;;;;;;;5.30;61.20;101769.66;10467328;28;20147;-66
2022/01/23 07:34:56;;;;;;;25.98;17.80;;;;;;;5.29;61.35;101767.06;10467460;28;20381;-67
2022/01/23 07:39:58;;;;;;;25.42;17.27;;;;;;;5.33;61.39;101764.44;10466724;28;20530;-67
2022/01/23 07:45:02;;;;;;;24.42;17.17;;;;;;;5.42;61.58;101764.34;10467201;28;20052;-66
2022/01/23 07:50:07;;;;;;;24.38;17.13;;;;;;;5.50;61.29;101777.25;10469291;28;20327;-66
2022/01/23 07:55:12;;;;;;;25.52;16.67;;;;;;;5.52;61.15;101781.56;10474304;28;20141;-66
2022/01/23 08:00:14;;;;;;;27.10;18.23;;;;;;;5.58;61.06;101780.63;10457344;28;20345;-67
2022/01/23 08:05:16;;;;;;;25.20;17.88;;;;;;;5.62;60.99;101777.13;10458035;28;20056;-67
2022/01/23 08:10:18;;;;;;;24.20;17.17;;;;;;;5.50;60.88;101785.03;10473902;28;20155;-67
2022/01/23 08:15:20;;;;;;;24.67;17.48;;;;;;;5.49;60.93;101802.31;10475343;28;20056;-67
2022/01/23 08:20:22;;;;;;;26.63;18.25;;;;;;;5.63;61.27;101804.81;10472875;28;20056;-66
2022/01/23 08:25:24;;;;;;;26.00;17.23;;;;;;;5.68;60.71;101795.22;10473760;28;20048;-66
2022/01/23 08:30:26;;;;;;;28.42;18.25;;;;;;;5.70;60.92;101801.25;10455577;28;20538;-66
2022/01/23 08:35:28;;;;;;;27.70;18.98;;;;;;;5.65;60.87;101803.06;10455648;28;20735;-67
2022/01/23 08:45:44;;;;;;;30.00;19.25;;;;;;;5.71;61.11;101802.13;10472780;28;20083;-66
2022/01/23 08:50:46;;;;;;;27.75;18.48;;;;;;;5.69;61.28;101804.75;10472517;28;20133;-66
2022/01/23 08:55:48;;;;;;;29.02;20.13;;;;;;;5.70;61.42;101798.66;10455120;28;20052;-67
2022/01/23 09:00:49;;;;;;;27.05;18.38;;;;;;;5.84;61.37;101796.78;10454030;28;20056;-66
2022/01/23 09:05:51;;;;;;;23.25;17.70;;;;;;;5.85;61.49;101795.06;10469986;28;20394;-66
2022/01/23 09:10:55;;;;;;;25.00;17.85;;;;;;;5.98;61.16;101792.28;10471839;28;20242;-66
2022/01/23 09:15:57;;;;;;;28.45;17.23;;;;;;;6.08;60.66;101793.06;10472020;28;20532;-66
2022/01/23 09:20:59;;;;;;;25.90;18.20;;;;;;;6.18;60.94;101792.06;10469459;28;20067;-65
2022/01/23 09:26:09;;;;;;;29.08;19.92;;;;;;;6.17;60.73;101795.53;10471477;28;20056;-66
2022/01/23 09:31:13;;;;;;;32.00;20.60;;;;;;;6.07;61.03;101806.91;10470245;28;21263;-67
2022/01/23 09:36:15;;;;;;;41.00;26.48;;;;;;;6.13;61.04;101807.72;10469449;28;20075;-66
2022/01/23 09:41:20;;;;;;;35.03;23.52;;;;;;;6.24;60.85;101803.25;10459794;28;20465;-66
2022/01/23 09:46:24;;;;;;;34.38;23.38;;;;;;;6.31;60.52;101815.31;10466139;28;20056;-66
2022/01/23 09:51:26;;;;;;;32.60;21.90;;;;;;;6.47;60.27;101813.38;10462977;28;20063;-66
2022/01/23 09:56:33;;;;;;;30.20;20.33;;;;;;;6.53;60.28;101823.69;10464101;28;20960;-64
2022/01/23 10:01:37;;;;;;;28.83;20.83;;;;;;;6.71;60.27;101815.66;10466600;28;20139;-64
2022/01/23 10:06:39;;;;;;;32.70;20.92;;;;;;;6.79;60.05;101824.22;10468160;28;20053;-64
2022/01/23 10:11:43;;;;;;;28.85;19.95;;;;;;;6.92;59.59;101827.47;10451710;28;20053;-64
2022/01/23 10:16:46;;;;;;;28.75;19.55;;;;;;;6.95;59.38;101820.50;10468700;28;20428;-65
2022/01/23 10:21:48;;;;;;;27.70;21.17;;;;;;;6.99;59.47;101814.38;10465642;28;20048;-64
2022/01/23 10:26:54;;;;;;;29.05;19.25;;;;;;;6.93;59.26;101817.06;10465881;28;20051;-64
2022/01/23 10:32:07;;;;;;;31.23;22.65;;;;;;;6.98;59.24;101820.44;10466704;28;20127;-65
2022/01/23 10:37:10;;;;;;;28.50;18.25;;;;;;;7.06;58.66;101809.94;10464987;28;20056;-64
2022/01/23 10:48:11;;;;;;;27.23;18.83;;;;;;;7.25;58.45;101811.34;10455359;28;20082;-64
2022/01/23 10:53:13;;;;;;;26.52;17.90;;;;;;;7.31;58.19;101803.44;10469161;28;20997;-65
2022/01/23 10:58:24;;;;;;;24.88;17.38;;;;;;;7.34;58.13;101789.53;10465407;28;20056;-65
2022/01/23 11:03:26;;;;;;;41.13;27.05;;;;;;;7.39;58.04;101798.09;10466568;28;20063;-65
2022/01/23 11:08:30;;;;;;;23.75;17.83;;;;;;;7.27;58.25;101803.50;10448308;28;20052;-65
2022/01/23 11:18:56;;;;;;;24.63;16.50;;;;;;;7.50;57.25;101797.03;10468407;28;20052;-65
2022/01/23 11:23:59;;;;;;;24.40;17.33;;;;;;;7.66;56.86;101792.41;10466460;28;20052;-65
2022/01/23 11:29:12;;;;;;;23.20;17.50;;;;;;;7.53;56.73;101783.13;10467036;28;20061;-65
2022/01/23 11:34:15;;;;;;;24.98;17.00;;;;;;;7.51;57.44;101777.91;10465372;28;20056;-65
2022/01/23 11:39:29;;;;;;;22.27;16.55;;;;;;;7.68;56.87;101778.47;10466267;28;20092;-65
2022/01/23 11:55:41;;;;;;;20.80;15.00;;;;;;;7.51;56.77;101785.72;10465548;28;20086;-66
2022/01/23 12:00:43;;;;;;;23.50;16.17;;;;;;;7.42;57.18;101785.03;10465925;28;20056;-66
2022/01/23 12:05:47;;;;;;;20.77;15.73;;;;;;;7.68;56.50;101780.22;10446596;28;20057;-67
2022/01/23 12:16:50;;;;;;;23.13;14.70;;;;;;;7.74;54.67;101764.47;10464284;28;20056;-66
2022/01/23 12:21:54;;;;;;;20.50;15.05;;;;;;;7.79;55.47;101757.44;10465894;28;20132;-66
2022/01/23 12:27:17;;;;;;;16.65;12.07;;;;;;;7.70;52.89;101742.84;10465938;28;20056;-66
2022/01/23 12:32:27;;;;;;;20.95;15.45;;;;;;;7.47;54.31;101728.56;10446646;28;20063;-66
2022/01/23 12:38:00;;;;;;;20.65;15.55;;;;;;;7.34;54.72;101722.72;10468887;28;20066;-66
2022/01/23 12:43:07;;;;;;;18.25;14.52;;;;;;;7.33;55.37;101713.19;10474268;28;20115;-66
2022/01/23 12:48:24;;;;;;;19.45;14.07;;;;;;;7.24;55.28;101715.09;10472869;28;20072;-66
2022/01/23 12:53:43;;;;;;;16.60;11.85;;;;;;;7.19;55.03;101718.63;10471344;28;20048;-67
2022/01/23 12:58:51;;;;;;;17.95;13.95;;;;;;;7.15;55.82;101711.78;10472496;28;20551;-66
2022/01/23 13:03:55;;;;;;;20.65;15.05;;;;;;;7.32;56.04;101718.41;10471392;28;20408;-67
2022/01/23 13:09:22;;;;;;;21.08;16.27;;;;;;;7.30;55.95;101717.59;10471227;28;20053;-67
2022/01/23 13:14:37;;;;;;;19.48;13.88;;;;;;;7.43;54.72;101729.47;10470880;28;20590;-66
2022/01/23 13:20:00;;;;;;;17.90;12.93;;;;;;;7.42;54.93;101733.84;10470818;28;20530;-66
2022/01/23 13:30:50;;;;;;;10.45;7.10;;;;;;;7.68;52.49;101723.78;10470530;28;20084;-66
2022/01/23 13:35:53;;;;;;;6.28;4.80;;;;;;;7.78;52.16;101725.31;10468464;28;20079;-66
2022/01/23 13:41:05;;;;;;;5.15;3.50;;;;;;;7.77;50.52;101721.00;10471148;28;20056;-66
2022/01/23 13:51:55;;;;;;;6.65;4.50;;;;;;;7.47;50.97;101729.41;10470440;28;20056;-66
2022/01/23 14:02:34;;;;;;;5.60;4.05;;;;;;;7.45;49.60;101720.75;10469513;28;20132;-65
2022/01/23 14:07:36;;;;;;;5.55;4.00;;;;;;;7.51;49.99;101725.84;10469525;28;20102;-66
2022/01/23 14:12:38;;;;;;;5.70;4.15;;;;;;;7.36;50.71;101727.88;10468942;28;20049;-66
2022/01/23 14:17:58;;;;;;;5.15;3.50;;;;;;;7.30;49.97;101726.25;10467196;28;20159;-66
2022/01/23 14:23:14;;;;;;;5.90;3.83;;;;;;;7.19;50.58;101725.56;10469074;28;20070;-66
2022/01/23 14:28:21;;;;;;;5.90;3.95;;;;;;;7.20;51.01;101725.53;10470289;28;20140;-66
2022/01/23 14:33:27;;;;;;;7.53;4.18;;;;;;;7.15;51.78;101732.59;10447359;28;20151;-66
2022/01/23 14:38:59;;;;;;;6.18;4.15;;;;;;;7.04;51.31;101733.66;10468574;28;20419;-66
2022/01/23 14:44:14;;;;;;;6.97;4.32;;;;;;;7.08;51.75;101730.13;10467198;28;20060;-66
2022/01/23 14:49:23;;;;;;;5.72;4.00;;;;;;;7.10;51.52;101725.75;10468044;28;20940;-66
2022/01/23 14:54:30;;;;;;;7.30;4.65;;;;;;;7.08;51.01;101722.31;10468132;28;20055;-66
2022/01/23 14:59:33;;;;;;;9.32;6.15;;;;;;;7.06;51.97;101732.72;10467814;28;20060;-66
2022/01/23 15:04:39;;;;;;;11.38;7.07;;;;;;;7.02;52.41;101730.22;10466341;28;20049;-66
2022/01/23 15:09:44;;;;;;;9.68;6.80;;;;;;;7.05;52.36;101724.97;10468035;28;20067;-66
2022/01/23 15:14:46;;;;;;;9.00;6.28;;;;;;;7.01;52.40;101715.50;10467243;28;20087;-66
2022/01/23 15:19:48;;;;;;;8.65;6.55;;;;;;;7.02;52.44;101718.06;10466725;28;20056;-66
2022/01/23 15:24:50;;;;;;;7.43;5.43;;;;;;;6.91;52.28;101706.13;10468099;28;20134;-66
2022/01/23 15:29:52;;;;;;;7.15;5.10;;;;;;;6.77;52.51;101711.56;10467920;28;20048;-66
2022/01/23 15:34:54;;;;;;;7.53;5.03;;;;;;;6.65;53.02;101718.69;10466295;28;20070;-65
2022/01/23 15:39:56;;;;;;;7.45;5.25;;;;;;;6.62;53.05;101718.72;10464746;28;20151;-66
2022/01/23 15:44:57;;;;;;;8.00;5.10;;;;;;;6.57;53.46;101716.19;10465296;28;20132;-66
2022/01/23 15:49:59;;;;;;;8.63;5.68;;;;;;;6.61;53.71;101717.03;10466050;28;20589;-66
2022/01/23 15:55:01;;;;;;;8.63;5.00;;;;;;;6.62;53.91;101713.53;10465806;28;20096;-66
2022/01/23 16:00:05;;;;;;;7.90;5.30;;;;;;;6.57;53.42;101717.94;10464335;28;20063;-67
2022/01/23 16:05:07;;;;;;;7.97;5.55;;;;;;;6.17;52.77;101715.88;10466535;28;20137;-66
2022/01/23 16:10:10;;;;;;;10.30;6.35;;;;;;;6.20;52.60;101723.63;10466466;28;20052;-66
2022/01/23 16:15:15;;;;;;;8.15;5.68;;;;;;;6.28;52.94;101716.63;10456008;28;20057;-66
2022/01/23 16:20:18;;;;;;;9.57;6.10;;;;;;;6.33;52.92;101717.41;10472901;28;20052;-66
2022/01/23 16:25:21;;;;;;;8.75;5.72;;;;;;;6.26;53.02;101713.19;10471997;28;20053;-65
2022/01/23 16:30:23;;;;;;;8.25;5.72;;;;;;;6.16;53.48;101716.78;10454759;28;20059;-65
2022/01/23 16:35:28;;;;;;;10.23;7.15;;;;;;;6.18;53.83;101717.59;10473347;28;20060;-66
2022/01/23 16:40:30;;;;;;;7.78;5.20;;;;;;;6.14;52.87;101715.91;10472396;28;20091;-66
2022/01/23 16:45:32;;;;;;;9.05;6.43;;;;;;;6.11;53.09;101726.34;10473192;28;20076;-65
2022/01/23 16:50:35;;;;;;;7.80;5.75;;;;;;;6.22;53.46;101731.41;10472957;28;20053;-65
2022/01/23 16:55:37;;;;;;;14.93;9.38;;;;;;;6.11;53.52;101735.88;10472038;28;20063;-65
2022/01/23 17:00:39;;;;;;;7.97;5.80;;;;;;;6.04;53.18;101737.69;10471008;28;20585;-65
2022/01/23 17:05:45;;;;;;;8.98;5.75;;;;;;;6.08;53.14;101734.16;10472373;28;20066;-65
2022/01/23 17:10:47;;;;;;;8.98;5.38;;;;;;;6.10;53.08;101736.75;10472131;28;21121;-66
2022/01/23 17:15:49;;;;;;;7.97;5.65;;;;;;;6.03;53.45;101735.09;10472721;28;20074;-65
2022/01/23 17:20:51;;;;;;;9.40;6.20;;;;;;;5.99;53.39;101736.91;10470829;28;20060;-65
2022/01/23 17:25:53;;;;;;;8.52;6.10;;;;;;;5.94;53.68;101730.03;10471278;28;20058;-66
2022/01/23 17:30:54;;;;;;;8.02;6.10;;;;;;;5.98;54.43;101732.56;10471160;28;20048;-65
2022/01/23 17:35:56;;;;;;;10.38;5.95;;;;;;;5.95;54.47;101736.94;10453207;28;20093;-65
2022/01/23 17:40:58;;;;;;;8.88;6.45;;;;;;;5.92;55.25;101724.00;10471276;28;20063;-65
2022/01/23 17:46:01;;;;;;;8.38;6.22;;;;;;;5.96;55.21;101728.28;10471124;28;20511;-65
2022/01/23 17:51:05;;;;;;;10.23;7.25;;;;;;;5.97;55.57;101720.47;10469736;28;20481;-65
2022/01/23 17:56:07;;;;;;;8.20;6.10;;;;;;;6.02;55.23;101723.84;10465925;28;20206;-65
2022/01/23 18:01:10;;;;;;;9.57;6.40;;;;;;;6.03;55.08;101717.78;10466113;28;20059;-66
2022/01/23 18:06:20;;;;;;;8.55;6.22;;;;;;;6.05;55.42;101718.63;10466104;28;20056;-66
2022/01/23 18:11:28;;;;;;;10.80;6.35;;;;;;;5.93;54.83;101723.13;10465113;28;20060;-65
2022/01/23 18:16:31;;;;;;;10.05;7.13;;;;;;;5.86;55.38;101724.09;10468335;28;20139;-65
2022/01/23 18:21:33;;;;;;;8.75;6.05;;;;;;;5.84;54.43;101729.28;10466582;28;20096;-65
2022/01/23 18:26:37;;;;;;;9.32;6.35;;;;;;;5.69;54.66;101729.47;10467624;28;20530;-65
2022/01/23 18:31:38;;;;;;;8.38;4.80;;;;;;;5.59;54.26;101738.22;10466260;28;20048;-66
2022/01/23 18:36:40;;;;;;;8.98;5.68;;;;;;;5.40;54.26;101737.56;10466520;28;20558;-66
2022/01/23 18:41:42;;;;;;;5.68;4.00;;;;;;;5.46;54.56;101744.41;10464081;28;20150;-65
2022/01/23 18:46:44;;;;;;;8.70;4.32;;;;;;;5.60;54.60;101747.72;10467303;28;20139;-65
2022/01/23 18:51:51;;;;;;;7.32;4.40;;;;;;;5.60;54.20;101742.53;10462609;28;20052;-65
2022/01/23 18:57:01;;;;;;;7.35;4.28;;;;;;;5.62;54.32;101751.16;10466128;28;20052;-65
2022/01/23 19:02:03;;;;;;;6.55;3.58;;;;;;;5.43;53.96;101752.25;10448285;28;20589;-66
2022/01/23 19:07:23;;;;;;;7.07;4.45;;;;;;;5.27;54.16;101745.47;10467247;28;20059;-65
2022/01/23 19:12:27;;;;;;;8.02;5.40;;;;;;;5.25;54.05;101749.78;10466966;28;20064;-65
2022/01/23 19:17:29;;;;;;;9.70;5.80;;;;;;;5.25;54.07;101744.59;10466172;28;20564;-65
2022/01/23 19:22:34;;;;;;;8.63;3.80;;;;;;;5.39;54.75;101733.22;10465899;28;20570;-65
2022/01/23 19:27:36;;;;;;;7.00;3.58;;;;;;;5.39;54.23;101740.19;10466202;28;20763;-65
2022/01/23 19:32:38;;;;;;;5.63;2.97;;;;;;;5.27;54.54;101743.72;10464945;28;20553;-66
2022/01/23 19:37:41;;;;;;;3.55;2.47;;;;;;;5.34;54.43;101745.41;10465137;28;20052;-66
2022/01/23 19:48:00;;;;;;;4.68;2.70;;;;;;;5.16;54.56;101739.53;10473794;28;20056;-66
2022/01/23 19:53:02;;;;;;;5.18;3.00;;;;;;;5.21;54.14;101736.00;10474602;28;20483;-65
2022/01/23 19:58:06;;;;;;;5.90;3.13;;;;;;;5.18;54.14;101730.00;10472593;28;20063;-66
2022/01/23 20:03:07;;;;;;;5.00;3.03;;;;;;;5.23;54.99;101723.88;10473976;28;20063;-66
2022/01/23 20:08:18;;;;;;;4.82;2.70;;;;;;;5.28;55.40;101735.09;10474424;28;20052;-66
2022/01/23 20:13:21;;;;;;;3.88;2.55;;;;;;;5.26;55.48;101728.19;10471335;28;20045;-65
2022/01/23 20:18:22;;;;;;;5.50;3.03;;;;;;;5.17;55.92;101734.31;10472980;28;20202;-66
2022/01/23 20:23:24;;;;;;;4.25;2.80;;;;;;;5.09;55.98;101732.66;10469287;28;20058;-66
2022/01/23 20:28:26;;;;;;;5.28;3.17;;;;;;;5.08;56.71;101733.53;10470722;28;20201;-66
2022/01/23 20:33:28;;;;;;;4.95;2.88;;;;;;;5.07;56.37;101731.81;10472137;28;20092;-66
2022/01/23 20:38:30;;;;;;;4.43;2.42;;;;;;;4.98;56.26;101731.91;10472158;28;20629;-66
2022/01/23 20:43:32;;;;;;;5.38;2.83;;;;;;;4.91;56.55;101738.00;10472416;28;20063;-66
2022/01/23 20:48:33;;;;;;;4.15;2.75;;;;;;;4.85;56.60;101740.66;10472792;28;20053;-66
2022/01/23 20:58:41;;;;;;;4.03;2.65;;;;;;;4.84;57.35;101742.38;10451858;28;20087;-66
2022/01/23 21:03:48;;;;;;;5.35;2.63;;;;;;;4.78;57.49;101749.34;10469872;28;20135;-66
2022/01/23 21:08:53;;;;;;;4.72;2.80;;;;;;;4.83;57.29;101745.84;10470803;28;20532;-66
2022/01/23 21:40:03;;;;;;;4.97;2.38;;;;;;;4.76;57.12;101730.38;10467256;28;20060;-66
2022/01/23 21:45:05;;;;;;;4.00;2.40;;;;;;;4.80;57.39;101737.25;10470480;28;20167;-66
2022/01/23 21:50:08;;;;;;;5.15;2.67;;;;;;;4.85;57.10;101738.06;10469788;28;20132;-66
2022/01/23 21:55:09;;;;;;;5.05;2.60;;;;;;;4.84;57.09;101741.53;10470389;28;20127;-67
2022/01/23 22:00:12;;;;;;;5.13;3.08;;;;;;;4.90;57.13;101731.13;10469074;28;20049;-66
2022/01/23 22:05:14;;;;;;;5.35;2.90;;;;;;;4.88;57.34;101727.66;10468540;28;20093;-66
2022/01/23 22:10:44;;;;;;;3.72;2.60;;;;;;;4.80;57.69;101730.31;10466995;28;20159;-66
2022/01/23 22:15:59;;;;;;;3.50;2.00;;;;;;;4.69;57.98;101740.78;10469972;28;20993;-66
2022/01/23 22:21:04;;;;;;;3.45;2.30;;;;;;;4.69;58.13;101733.00;10468467;28;20071;-66
2022/01/23 22:31:43;;;;;;;4.00;2.25;;;;;;;4.95;58.42;101739.69;10505373;27;21491;-65
2022/01/23 22:36:44;;;;;;;4.13;2.10;;;;;;;4.94;57.99;101740.59;10506747;28;20056;-71
2022/01/23 22:41:46;;;;;;;2.45;1.60;;;;;;;4.86;58.62;101748.41;10504816;28;20052;-71
2022/01/23 22:46:48;;;;;;;2.20;1.50;;;;;;;4.83;59.01;101751.03;10504132;28;20407;-71
2022/01/23 22:51:53;;;;;;;2.58;1.60;;;;;;;4.96;58.37;101749.22;10499407;28;20496;-71
2022/01/23 22:56:54;;;;;;;2.80;1.77;;;;;;;4.97;58.46;101748.31;10495138;28;20048;-71
2022/01/23 23:01:56;;;;;;;2.63;1.70;;;;;;;4.99;58.43;101746.56;10502350;28;20135;-71
2022/01/23 23:06:58;;;;;;;2.97;1.60;;;;;;;5.10;58.55;101745.63;10505022;28;20110;-72
2022/01/23 23:12:00;;;;;;;3.10;1.65;;;;;;;5.06;58.32;101740.47;10509387;28;20615;-72
2022/01/23 23:17:03;;;;;;;3.65;1.80;;;;;;;5.09;58.26;101737.84;10512675;28;20076;-71
2022/01/23 23:22:05;;;;;;;4.15;2.10;;;;;;;5.14;58.31;101730.91;10501786;28;20048;-71
2022/01/23 23:27:11;;;;;;;3.03;1.65;;;;;;;5.01;58.15;101729.28;10501131;28;20139;-71
2022/01/23 23:32:12;;;;;;;4.10;2.03;;;;;;;4.93;58.54;101723.28;10501079;28;20492;-72
2022/01/23 23:37:14;;;;;;;4.82;1.92;;;;;;;4.96;58.64;101718.09;10501423;28;20475;-71
2022/01/23 23:42:26;;;;;;;3.33;2.03;;;;;;;5.00;58.47;101720.66;10475172;28;20514;-71
2022/01/23 23:47:30;;;;;;;4.47;1.90;;;;;;;5.01;58.42;101718.91;10473692;28;20143;-71
2022/01/23 23:52:44;;;;;;;4.38;2.20;;;;;;;5.12;58.25;101717.09;10471266;28;20071;-72
2022/01/23 23:57:48;;;;;;;4.53;2.00;;;;;;;5.14;58.05;101711.03;10472662;28;20040;-71
